sensor_id;sensor_type;location;lat;lon;timestamp;P1;durP1;ratioP1;P2;durP2;ratioP2
60964;SDS011;46834;51.100;6.886;2022-09-09T00:01:54;0.95;;;0.43;;
60964;SDS011;46834;51.100;6.886;2022-09-09T00:04:35;1.10;;;0.38;;
60964;SDS011;46834;51.100;6.886;2022-09-09T00:07:05;0.95;;;0.50;;
60964;SDS011;46834;51.100;6.886;2022-09-09T00:09:45;0.93;;;0.50;;
60964;SDS011;46834;51.100;6.886;2022-09-09T00:15:07;1.25;;;0.50;;
60964;SDS011;46834;51.100;6.886;2022-09-09T00:20:34;1.67;;;0.60;;
60964;SDS011;46834;51.100;6.886;2022-09-09T00:23:14;2.90;;;0.80;;
60964;SDS011;46834;51.100;6.886;2022-09-09T00:26:14;0.82;;;0.50;;
60964;SDS011;46834;51.100;6.886;2022-09-09T00:29:03;1.50;;;0.60;;
60964;SDS011;46834;51.100;6.886;2022-09-09T00:31:53;1.10;;;0.50;;
60964;SDS011;46834;51.100;6.886;2022-09-09T00:34:28;1.38;;;0.50;;
60964;SDS011;46834;51.100;6.886;2022-09-09T00:36:55;1.63;;;0.65;;
60964;SDS011;46834;51.100;6.886;2022-09-09T00:39:32;1.65;;;0.90;;
60964;SDS011;46834;51.100;6.886;2022-09-09T00:42:09;0.95;;;0.50;;
60964;SDS011;46834;51.100;6.886;2022-09-09T00:47:39;1.27;;;0.50;;
60964;SDS011;46834;51.100;6.886;2022-09-09T00:50:26;1.25;;;0.63;;
60964;SDS011;46834;51.100;6.886;2022-09-09T00:56:24;2.95;;;0.80;;
60964;SDS011;46834;51.100;6.886;2022-09-09T01:02:06;0.88;;;0.40;;
60964;SDS011;46834;51.100;6.886;2022-09-09T01:04:50;0.70;;;0.50;;
60964;SDS011;46834;51.100;6.886;2022-09-09T01:07:17;1.75;;;0.70;;
60964;SDS011;46834;51.100;6.886;2022-09-09T01:09:57;2.50;;;0.55;;
60964;SDS011;46834;51.100;6.886;2022-09-09T01:12:28;3.95;;;0.52;;
60964;SDS011;46834;51.100;6.886;2022-09-09T01:15:26;0.73;;;0.60;;
60964;SDS011;46834;51.100;6.886;2022-09-09T01:18:00;1.25;;;0.70;;
60964;SDS011;46834;51.100;6.886;2022-09-09T01:20:48;2.45;;;1.05;;
60964;SDS011;46834;51.100;6.886;2022-09-09T01:26:24;1.90;;;0.68;;
60964;SDS011;46834;51.100;6.886;2022-09-09T01:29:02;1.63;;;0.65;;
60964;SDS011;46834;51.100;6.886;2022-09-09T01:31:37;1.95;;;0.70;;
60964;SDS011;46834;51.100;6.886;2022-09-09T01:34:12;1.23;;;0.50;;
60964;SDS011;46834;51.100;6.886;2022-09-09T01:36:44;0.80;;;0.40;;
60964;SDS011;46834;51.100;6.886;2022-09-09T01:39:22;1.08;;;0.50;;
60964;SDS011;46834;51.100;6.886;2022-09-09T01:41:49;1.30;;;0.50;;
60964;SDS011;46834;51.100;6.886;2022-09-09T01:44:15;2.22;;;0.70;;
60964;SDS011;46834;51.100;6.886;2022-09-09T01:46:41;0.88;;;0.50;;
60964;SDS011;46834;51.100;6.886;2022-09-09T01:49:06;1.35;;;0.60;;
60964;SDS011;46834;51.100;6.886;2022-09-09T01:51:34;1.40;;;0.65;;
60964;SDS011;46834;51.100;6.886;2022-09-09T01:54:03;1.15;;;0.70;;
60964;SDS011;46834;51.100;6.886;2022-09-09T01:56:39;1.23;;;0.60;;
60964;SDS011;46834;51.100;6.886;2022-09-09T02:05:38;1.05;;;0.50;;
60964;SDS011;46834;51.100;6.886;2022-09-09T02:08:09;1.40;;;0.68;;
60964;SDS011;46834;51.100;6.886;2022-09-09T02:10:50;1.20;;;0.60;;
60964;SDS011;46834;51.100;6.886;2022-09-09T02:13:34;1.88;;;0.60;;
60964;SDS011;46834;51.100;6.886;2022-09-09T02:21:33;2.40;;;0.70;;
60964;SDS011;46834;51.100;6.886;2022-09-09T02:24:02;1.85;;;0.75;;
60964;SDS011;46834;51.100;6.886;2022-09-09T02:26:34;1.40;;;0.60;;
60964;SDS011;46834;51.100;6.886;2022-09-09T02:29:17;1.15;;;0.60;;
60964;SDS011;46834;51.100;6.886;2022-09-09T02:31:49;1.05;;;0.50;;
60964;SDS011;46834;51.100;6.886;2022-09-09T02:34:20;1.83;;;0.70;;
60964;SDS011;46834;51.100;6.886;2022-09-09T02:36:49;1.27;;;0.60;;
60964;SDS011;46834;51.100;6.886;2022-09-09T02:39:18;2.58;;;0.70;;
60964;SDS011;46834;51.100;6.886;2022-09-09T02:41:44;0.85;;;0.55;;
60964;SDS011;46834;51.100;6.886;2022-09-09T02:44:11;1.23;;;0.60;;
60964;SDS011;46834;51.100;6.886;2022-09-09T02:46:46;3.65;;;0.90;;
60964;SDS011;46834;51.100;6.886;2022-09-09T02:55:41;1.05;;;0.50;;
60964;SDS011;46834;51.100;6.886;2022-09-09T02:58:34;2.13;;;0.70;;
60964;SDS011;46834;51.100;6.886;2022-09-09T03:01:01;3.70;;;0.73;;
60964;SDS011;46834;51.100;6.886;2022-09-09T03:03:27;3.47;;;0.90;;
60964;SDS011;46834;51.100;6.886;2022-09-09T03:05:54;2.03;;;0.88;;
60964;SDS011;46834;51.100;6.886;2022-09-09T03:08:19;1.95;;;0.70;;
60964;SDS011;46834;51.100;6.886;2022-09-09T03:10:45;2.42;;;0.65;;
60964;SDS011;46834;51.100;6.886;2022-09-09T03:13:11;2.17;;;0.82;;
60964;SDS011;46834;51.100;6.886;2022-09-09T03:15:40;1.48;;;0.68;;
60964;SDS011;46834;51.100;6.886;2022-09-09T03:18:06;1.48;;;0.57;;
60964;SDS011;46834;51.100;6.886;2022-09-09T03:20:31;2.67;;;0.80;;
60964;SDS011;46834;51.100;6.886;2022-09-09T03:22:58;2.33;;;0.70;;
60964;SDS011;46834;51.100;6.886;2022-09-09T03:25:25;1.58;;;0.60;;
60964;SDS011;46834;51.100;6.886;2022-09-09T03:27:51;1.98;;;0.75;;
60964;SDS011;46834;51.100;6.886;2022-09-09T03:30:24;0.77;;;0.73;;
60964;SDS011;46834;51.100;6.886;2022-09-09T03:32:52;2.10;;;0.65;;
60964;SDS011;46834;51.100;6.886;2022-09-09T03:35:18;1.73;;;0.60;;
60964;SDS011;46834;51.100;6.886;2022-09-09T03:37:44;2.00;;;0.70;;
60964;SDS011;46834;51.100;6.886;2022-09-09T03:40:10;0.85;;;0.60;;
60964;SDS011;46834;51.100;6.886;2022-09-09T03:42:37;2.03;;;0.80;;
60964;SDS011;46834;51.100;6.886;2022-09-09T03:45:04;2.38;;;0.88;;
60964;SDS011;46834;51.100;6.886;2022-09-09T03:47:34;2.88;;;0.70;;
60964;SDS011;46834;51.100;6.886;2022-09-09T03:50:00;1.25;;;0.73;;
60964;SDS011;46834;51.100;6.886;2022-09-09T03:52:26;1.75;;;0.75;;
60964;SDS011;46834;51.100;6.886;2022-09-09T03:54:52;1.85;;;0.90;;
60964;SDS011;46834;51.100;6.886;2022-09-09T03:57:19;2.50;;;0.77;;
60964;SDS011;46834;51.100;6.886;2022-09-09T03:59:45;1.35;;;0.60;;
60964;SDS011;46834;51.100;6.886;2022-09-09T04:02:11;1.77;;;0.63;;
60964;SDS011;46834;51.100;6.886;2022-09-09T04:04:36;1.52;;;0.63;;
60964;SDS011;46834;51.100;6.886;2022-09-09T04:07:02;4.53;;;0.70;;
60964;SDS011;46834;51.100;6.886;2022-09-09T04:09:31;1.48;;;0.70;;
60964;SDS011;46834;51.100;6.886;2022-09-09T04:11:56;3.40;;;0.80;;
60964;SDS011;46834;51.100;6.886;2022-09-09T04:14:22;1.92;;;0.63;;
60964;SDS011;46834;51.100;6.886;2022-09-09T04:16:48;2.38;;;1.02;;
60964;SDS011;46834;51.100;6.886;2022-09-09T04:19:13;1.67;;;0.70;;
60964;SDS011;46834;51.100;6.886;2022-09-09T04:21:40;1.70;;;0.90;;
60964;SDS011;46834;51.100;6.886;2022-09-09T04:24:07;1.65;;;0.80;;
60964;SDS011;46834;51.100;6.886;2022-09-09T04:26:33;2.33;;;0.80;;
60964;SDS011;46834;51.100;6.886;2022-09-09T04:29:01;4.85;;;0.80;;
60964;SDS011;46834;51.100;6.886;2022-09-09T04:31:32;2.60;;;0.90;;
60964;SDS011;46834;51.100;6.886;2022-09-09T04:33:59;1.92;;;0.77;;
60964;SDS011;46834;51.100;6.886;2022-09-09T04:36:29;2.30;;;0.65;;
60964;SDS011;46834;51.100;6.886;2022-09-09T04:38:57;1.88;;;0.90;;
60964;SDS011;46834;51.100;6.886;2022-09-09T04:41:22;2.55;;;0.98;;
60964;SDS011;46834;51.100;6.886;2022-09-09T04:43:49;2.17;;;0.85;;
60964;SDS011;46834;51.100;6.886;2022-09-09T04:46:15;2.13;;;0.90;;
60964;SDS011;46834;51.100;6.886;2022-09-09T04:48:43;1.27;;;0.75;;
60964;SDS011;46834;51.100;6.886;2022-09-09T04:51:11;4.43;;;1.00;;
60964;SDS011;46834;51.100;6.886;2022-09-09T04:53:38;2.95;;;1.02;;
60964;SDS011;46834;51.100;6.886;2022-09-09T04:56:12;1.77;;;0.63;;
60964;SDS011;46834;51.100;6.886;2022-09-09T04:58:40;1.75;;;0.90;;
60964;SDS011;46834;51.100;6.886;2022-09-09T05:01:11;1.85;;;0.88;;
60964;SDS011;46834;51.100;6.886;2022-09-09T05:03:43;1.85;;;0.70;;
60964;SDS011;46834;51.100;6.886;2022-09-09T05:06:13;2.35;;;0.90;;
60964;SDS011;46834;51.100;6.886;2022-09-09T05:08:43;2.17;;;0.73;;
60964;SDS011;46834;51.100;6.886;2022-09-09T05:11:19;1.33;;;0.68;;
60964;SDS011;46834;51.100;6.886;2022-09-09T05:13:52;3.17;;;1.10;;
60964;SDS011;46834;51.100;6.886;2022-09-09T05:16:19;1.70;;;0.80;;
60964;SDS011;46834;51.100;6.886;2022-09-09T05:18:46;3.38;;;1.00;;
60964;SDS011;46834;51.100;6.886;2022-09-09T05:21:13;2.15;;;0.80;;
60964;SDS011;46834;51.100;6.886;2022-09-09T05:23:41;3.17;;;0.98;;
60964;SDS011;46834;51.100;6.886;2022-09-09T05:26:08;1.73;;;0.80;;
60964;SDS011;46834;51.100;6.886;2022-09-09T05:28:39;1.13;;;0.65;;
60964;SDS011;46834;51.100;6.886;2022-09-09T05:31:08;2.05;;;0.98;;
60964;SDS011;46834;51.100;6.886;2022-09-09T05:33:38;2.95;;;1.00;;
60964;SDS011;46834;51.100;6.886;2022-09-09T05:36:13;2.85;;;0.75;;
60964;SDS011;46834;51.100;6.886;2022-09-09T05:38:45;4.20;;;1.05;;
60964;SDS011;46834;51.100;6.886;2022-09-09T05:41:11;2.15;;;0.77;;
60964;SDS011;46834;51.100;6.886;2022-09-09T05:43:40;2.05;;;0.70;;
60964;SDS011;46834;51.100;6.886;2022-09-09T05:46:10;1.92;;;0.93;;
60964;SDS011;46834;51.100;6.886;2022-09-09T05:48:46;2.70;;;0.90;;
60964;SDS011;46834;51.100;6.886;2022-09-09T05:51:14;3.15;;;0.80;;
60964;SDS011;46834;51.100;6.886;2022-09-09T05:53:49;3.30;;;0.98;;
60964;SDS011;46834;51.100;6.886;2022-09-09T05:56:17;3.72;;;1.05;;
60964;SDS011;46834;51.100;6.886;2022-09-09T05:58:47;3.90;;;1.30;;
60964;SDS011;46834;51.100;6.886;2022-09-09T06:01:15;2.28;;;1.13;;
60964;SDS011;46834;51.100;6.886;2022-09-09T06:03:44;1.42;;;1.00;;
60964;SDS011;46834;51.100;6.886;2022-09-09T06:06:13;2.75;;;1.13;;
60964;SDS011;46834;51.100;6.886;2022-09-09T06:08:42;3.30;;;1.13;;
60964;SDS011;46834;51.100;6.886;2022-09-09T06:11:11;1.55;;;0.80;;
60964;SDS011;46834;51.100;6.886;2022-09-09T06:13:40;3.22;;;1.10;;
60964;SDS011;46834;51.100;6.886;2022-09-09T06:16:12;3.67;;;0.95;;
60964;SDS011;46834;51.100;6.886;2022-09-09T06:18:41;2.90;;;1.25;;
60964;SDS011;46834;51.100;6.886;2022-09-09T06:21:15;2.03;;;1.00;;
60964;SDS011;46834;51.100;6.886;2022-09-09T06:23:51;2.25;;;0.63;;
60964;SDS011;46834;51.100;6.886;2022-09-09T06:26:22;2.63;;;0.90;;
60964;SDS011;46834;51.100;6.886;2022-09-09T06:28:51;3.83;;;0.80;;
60964;SDS011;46834;51.100;6.886;2022-09-09T06:31:20;3.25;;;1.00;;
60964;SDS011;46834;51.100;6.886;2022-09-09T06:33:48;2.97;;;0.75;;
60964;SDS011;46834;51.100;6.886;2022-09-09T06:36:17;2.63;;;0.98;;
60964;SDS011;46834;51.100;6.886;2022-09-09T06:38:54;3.53;;;0.95;;
60964;SDS011;46834;51.100;6.886;2022-09-09T06:41:21;1.48;;;0.82;;
60964;SDS011;46834;51.100;6.886;2022-09-09T06:43:51;2.30;;;0.95;;
60964;SDS011;46834;51.100;6.886;2022-09-09T06:46:21;2.92;;;1.00;;
60964;SDS011;46834;51.100;6.886;2022-09-09T06:48:52;2.33;;;0.80;;
60964;SDS011;46834;51.100;6.886;2022-09-09T06:51:25;4.00;;;1.08;;
60964;SDS011;46834;51.100;6.886;2022-09-09T06:53:57;5.35;;;1.33;;
60964;SDS011;46834;51.100;6.886;2022-09-09T06:56:27;3.03;;;1.00;;
60964;SDS011;46834;51.100;6.886;2022-09-09T06:58:56;2.70;;;1.00;;
60964;SDS011;46834;51.100;6.886;2022-09-09T07:01:24;3.85;;;1.05;;
60964;SDS011;46834;51.100;6.886;2022-09-09T07:03:53;2.50;;;0.90;;
60964;SDS011;46834;51.100;6.886;2022-09-09T07:06:30;5.22;;;1.10;;
60964;SDS011;46834;51.100;6.886;2022-09-09T07:09:00;1.02;;;0.70;;
60964;SDS011;46834;51.100;6.886;2022-09-09T07:11:31;2.13;;;0.70;;
60964;SDS011;46834;51.100;6.886;2022-09-09T07:14:07;2.75;;;0.90;;
60964;SDS011;46834;51.100;6.886;2022-09-09T07:16:33;5.28;;;1.20;;
60964;SDS011;46834;51.100;6.886;2022-09-09T07:19:02;1.65;;;0.60;;
60964;SDS011;46834;51.100;6.886;2022-09-09T07:21:29;1.73;;;0.70;;
60964;SDS011;46834;51.100;6.886;2022-09-09T07:23:56;1.88;;;0.80;;
60964;SDS011;46834;51.100;6.886;2022-09-09T07:26:23;1.42;;;0.85;;
60964;SDS011;46834;51.100;6.886;2022-09-09T07:28:54;2.63;;;1.10;;
60964;SDS011;46834;51.100;6.886;2022-09-09T07:31:23;3.58;;;0.90;;
60964;SDS011;46834;51.100;6.886;2022-09-09T07:33:52;3.13;;;0.90;;
60964;SDS011;46834;51.100;6.886;2022-09-09T07:36:25;4.68;;;0.77;;
60964;SDS011;46834;51.100;6.886;2022-09-09T07:39:10;2.53;;;0.80;;
60964;SDS011;46834;51.100;6.886;2022-09-09T07:41:45;3.35;;;1.15;;
60964;SDS011;46834;51.100;6.886;2022-09-09T07:44:22;2.47;;;0.82;;
60964;SDS011;46834;51.100;6.886;2022-09-09T07:46:49;2.55;;;0.70;;
60964;SDS011;46834;51.100;6.886;2022-09-09T07:49:15;2.03;;;0.60;;
60964;SDS011;46834;51.100;6.886;2022-09-09T07:51:43;2.45;;;0.93;;
60964;SDS011;46834;51.100;6.886;2022-09-09T07:54:13;2.78;;;0.70;;
60964;SDS011;46834;51.100;6.886;2022-09-09T07:56:41;16.15;;;0.70;;
60964;SDS011;46834;51.100;6.886;2022-09-09T07:59:07;4.10;;;0.95;;
60964;SDS011;46834;51.100;6.886;2022-09-09T08:01:36;2.42;;;0.73;;
60964;SDS011;46834;51.100;6.886;2022-09-09T08:04:06;1.55;;;0.65;;
60964;SDS011;46834;51.100;6.886;2022-09-09T08:06:42;2.58;;;0.88;;
60964;SDS011;46834;51.100;6.886;2022-09-09T08:09:14;2.70;;;0.93;;
60964;SDS011;46834;51.100;6.886;2022-09-09T08:11:41;3.20;;;0.90;;
60964;SDS011;46834;51.100;6.886;2022-09-09T08:14:08;4.82;;;0.85;;
60964;SDS011;46834;51.100;6.886;2022-09-09T08:16:37;4.00;;;0.80;;
60964;SDS011;46834;51.100;6.886;2022-09-09T08:19:12;1.58;;;0.60;;
60964;SDS011;46834;51.100;6.886;2022-09-09T08:21:40;4.93;;;1.30;;
60964;SDS011;46834;51.100;6.886;2022-09-09T08:24:08;4.65;;;1.00;;
60964;SDS011;46834;51.100;6.886;2022-09-09T08:26:39;2.25;;;0.85;;
60964;SDS011;46834;51.100;6.886;2022-09-09T08:29:09;1.10;;;0.80;;
60964;SDS011;46834;51.100;6.886;2022-09-09T08:31:37;1.33;;;0.70;;
60964;SDS011;46834;51.100;6.886;2022-09-09T08:34:07;4.60;;;1.13;;
60964;SDS011;46834;51.100;6.886;2022-09-09T08:36:38;3.30;;;1.00;;
60964;SDS011;46834;51.100;6.886;2022-09-09T08:39:10;2.67;;;0.90;;
60964;SDS011;46834;51.100;6.886;2022-09-09T08:44:32;3.13;;;0.82;;
60964;SDS011;46834;51.100;6.886;2022-09-09T08:55:59;3.00;;;0.77;;
60964;SDS011;46834;51.100;6.886;2022-09-09T08:58:34;1.98;;;0.73;;
60964;SDS011;46834;51.100;6.886;2022-09-09T09:12:15;1.08;;;0.75;;
60964;SDS011;46834;51.100;6.886;2022-09-09T09:14:46;2.65;;;0.70;;
60964;SDS011;46834;51.100;6.886;2022-09-09T09:17:14;1.42;;;0.77;;
60964;SDS011;46834;51.100;6.886;2022-09-09T09:19:46;3.03;;;0.68;;
60964;SDS011;46834;51.100;6.886;2022-09-09T09:25:23;2.47;;;0.60;;
60964;SDS011;46834;51.100;6.886;2022-09-09T09:28:02;5.93;;;1.08;;
60964;SDS011;46834;51.100;6.886;2022-09-09T09:30:44;2.15;;;0.90;;
60964;SDS011;46834;51.100;6.886;2022-09-09T09:36:18;2.65;;;0.70;;
60964;SDS011;46834;51.100;6.886;2022-09-09T09:38:58;2.53;;;0.60;;
60964;SDS011;46834;51.100;6.886;2022-09-09T09:41:44;2.72;;;0.80;;
60964;SDS011;46834;51.100;6.886;2022-09-09T09:47:18;5.03;;;0.95;;
60964;SDS011;46834;51.100;6.886;2022-09-09T09:49:55;3.63;;;0.95;;
60964;SDS011;46834;51.100;6.886;2022-09-09T09:52:33;3.47;;;0.70;;
60964;SDS011;46834;51.100;6.886;2022-09-09T09:55:03;2.50;;;0.73;;
60964;SDS011;46834;51.100;6.886;2022-09-09T09:57:37;4.53;;;1.17;;
60964;SDS011;46834;51.100;6.886;2022-09-09T10:00:13;1.92;;;0.75;;
60964;SDS011;46834;51.100;6.886;2022-09-09T10:02:46;1.95;;;0.93;;
60964;SDS011;46834;51.100;6.886;2022-09-09T10:07:43;3.25;;;0.73;;
60964;SDS011;46834;51.100;6.886;2022-09-09T10:10:12;1.95;;;0.70;;
60964;SDS011;46834;51.100;6.886;2022-09-09T10:31:00;3.88;;;0.90;;
60964;SDS011;46834;51.100;6.886;2022-09-09T10:36:13;1.13;;;0.50;;
60964;SDS011;46834;51.100;6.886;2022-09-09T10:41:37;0.88;;;0.57;;
60964;SDS011;46834;51.100;6.886;2022-09-09T10:50:18;0.95;;;0.60;;
60964;SDS011;46834;51.100;6.886;2022-09-09T10:55:40;0.98;;;0.50;;
60964;SDS011;46834;51.100;6.886;2022-09-09T10:58:12;0.85;;;0.45;;
60964;SDS011;46834;51.100;6.886;2022-09-09T11:00:59;2.58;;;0.70;;
60964;SDS011;46834;51.100;6.886;2022-09-09T11:03:34;1.67;;;0.57;;
60964;SDS011;46834;51.100;6.886;2022-09-09T11:06:06;2.30;;;0.63;;
60964;SDS011;46834;51.100;6.886;2022-09-09T11:08:42;2.15;;;0.68;;
60964;SDS011;46834;51.100;6.886;2022-09-09T11:11:12;2.22;;;0.80;;
60964;SDS011;46834;51.100;6.886;2022-09-09T11:14:12;2.35;;;0.60;;
60964;SDS011;46834;51.100;6.886;2022-09-09T11:17:23;2.10;;;0.57;;
60964;SDS011;46834;51.100;6.886;2022-09-09T11:19:57;1.40;;;0.60;;
60964;SDS011;46834;51.100;6.886;2022-09-09T11:22:30;2.47;;;0.60;;
60964;SDS011;46834;51.100;6.886;2022-09-09T11:25:23;0.73;;;0.52;;
60964;SDS011;46834;51.100;6.886;2022-09-09T11:28:01;4.22;;;0.73;;
60964;SDS011;46834;51.100;6.886;2022-09-09T11:30:49;3.15;;;0.60;;
60964;SDS011;46834;51.100;6.886;2022-09-09T11:40:14;3.03;;;0.80;;
60964;SDS011;46834;51.100;6.886;2022-09-09T11:42:48;1.25;;;0.50;;
60964;SDS011;46834;51.100;6.886;2022-09-09T11:45:37;1.58;;;0.60;;
60964;SDS011;46834;51.100;6.886;2022-09-09T11:48:22;2.65;;;0.60;;
60964;SDS011;46834;51.100;6.886;2022-09-09T11:51:08;0.80;;;0.40;;
60964;SDS011;46834;51.100;6.886;2022-09-09T11:53:51;5.03;;;1.10;;
60964;SDS011;46834;51.100;6.886;2022-09-09T11:59:27;1.42;;;0.50;;
60964;SDS011;46834;51.100;6.886;2022-09-09T12:01:58;2.17;;;0.70;;
60964;SDS011;46834;51.100;6.886;2022-09-09T12:04:37;2.42;;;0.60;;
60964;SDS011;46834;51.100;6.886;2022-09-09T12:07:52;1.55;;;0.50;;
60964;SDS011;46834;51.100;6.886;2022-09-09T12:10:25;2.47;;;0.80;;
60964;SDS011;46834;51.100;6.886;2022-09-09T12:18:21;2.88;;;0.47;;
60964;SDS011;46834;51.100;6.886;2022-09-09T12:20:55;1.63;;;0.50;;
60964;SDS011;46834;51.100;6.886;2022-09-09T12:31:45;3.35;;;1.00;;
60964;SDS011;46834;51.100;6.886;2022-09-09T12:34:49;1.98;;;0.68;;
60964;SDS011;46834;51.100;6.886;2022-09-09T12:37:38;1.17;;;0.45;;
60964;SDS011;46834;51.100;6.886;2022-09-09T12:42:48;1.23;;;0.68;;
60964;SDS011;46834;51.100;6.886;2022-09-09T12:45:22;2.13;;;0.70;;
60964;SDS011;46834;51.100;6.886;2022-09-09T12:50:33;2.60;;;0.57;;
60964;SDS011;46834;51.100;6.886;2022-09-09T12:53:07;2.20;;;0.60;;
60964;SDS011;46834;51.100;6.886;2022-09-09T12:55:51;2.00;;;0.73;;
60964;SDS011;46834;51.100;6.886;2022-09-09T12:58:31;2.90;;;0.80;;
60964;SDS011;46834;51.100;6.886;2022-09-09T13:00:58;2.45;;;0.65;;
60964;SDS011;46834;51.100;6.886;2022-09-09T13:03:26;4.18;;;1.10;;
60964;SDS011;46834;51.100;6.886;2022-09-09T13:05:53;0.77;;;0.60;;
60964;SDS011;46834;51.100;6.886;2022-09-09T13:08:25;0.85;;;0.50;;
60964;SDS011;46834;51.100;6.886;2022-09-09T13:13:34;0.80;;;0.50;;
60964;SDS011;46834;51.100;6.886;2022-09-09T13:16:03;3.60;;;0.60;;
60964;SDS011;46834;51.100;6.886;2022-09-09T13:18:34;1.30;;;0.50;;
60964;SDS011;46834;51.100;6.886;2022-09-09T13:21:04;2.80;;;0.90;;
60964;SDS011;46834;51.100;6.886;2022-09-09T13:23:31;3.03;;;0.77;;
60964;SDS011;46834;51.100;6.886;2022-09-09T13:26:19;3.38;;;0.90;;
60964;SDS011;46834;51.100;6.886;2022-09-09T13:28:51;1.38;;;0.70;;
60964;SDS011;46834;51.100;6.886;2022-09-09T13:31:20;3.83;;;0.90;;
60964;SDS011;46834;51.100;6.886;2022-09-09T13:33:54;4.10;;;1.15;;
60964;SDS011;46834;51.100;6.886;2022-09-09T13:36:30;3.70;;;1.00;;
60964;SDS011;46834;51.100;6.886;2022-09-09T13:39:00;3.38;;;1.00;;
60964;SDS011;46834;51.100;6.886;2022-09-09T13:41:30;4.88;;;0.80;;
60964;SDS011;46834;51.100;6.886;2022-09-09T13:44:25;1.70;;;0.93;;
60964;SDS011;46834;51.100;6.886;2022-09-09T13:47:00;2.30;;;1.00;;
60964;SDS011;46834;51.100;6.886;2022-09-09T13:49:41;1.98;;;0.60;;
60964;SDS011;46834;51.100;6.886;2022-09-09T13:52:11;2.28;;;0.85;;
60964;SDS011;46834;51.100;6.886;2022-09-09T13:54:39;2.58;;;1.08;;
60964;SDS011;46834;51.100;6.886;2022-09-09T13:57:14;6.13;;;0.98;;
60964;SDS011;46834;51.100;6.886;2022-09-09T13:59:46;2.33;;;0.88;;
60964;SDS011;46834;51.100;6.886;2022-09-09T14:02:12;4.55;;;1.00;;
60964;SDS011;46834;51.100;6.886;2022-09-09T14:04:39;5.22;;;1.52;;
60964;SDS011;46834;51.100;6.886;2022-09-09T14:07:08;4.90;;;1.27;;
60964;SDS011;46834;51.100;6.886;2022-09-09T14:09:39;3.42;;;1.45;;
60964;SDS011;46834;51.100;6.886;2022-09-09T14:12:08;5.53;;;1.40;;
60964;SDS011;46834;51.100;6.886;2022-09-09T14:14:38;2.70;;;1.60;;
60964;SDS011;46834;51.100;6.886;2022-09-09T14:17:04;2.95;;;0.93;;
60964;SDS011;46834;51.100;6.886;2022-09-09T14:19:30;1.83;;;0.80;;
60964;SDS011;46834;51.100;6.886;2022-09-09T14:21:56;5.25;;;1.20;;
60964;SDS011;46834;51.100;6.886;2022-09-09T14:24:23;8.20;;;1.63;;
60964;SDS011;46834;51.100;6.886;2022-09-09T14:26:50;4.45;;;1.27;;
60964;SDS011;46834;51.100;6.886;2022-09-09T14:29:15;3.53;;;1.02;;
60964;SDS011;46834;51.100;6.886;2022-09-09T14:31:41;1.08;;;0.57;;
60964;SDS011;46834;51.100;6.886;2022-09-09T14:34:07;1.70;;;0.55;;
60964;SDS011;46834;51.100;6.886;2022-09-09T14:36:32;0.80;;;0.43;;
60964;SDS011;46834;51.100;6.886;2022-09-09T14:38:58;1.05;;;0.40;;
60964;SDS011;46834;51.100;6.886;2022-09-09T14:41:24;2.17;;;0.50;;
60964;SDS011;46834;51.100;6.886;2022-09-09T14:43:50;1.10;;;0.60;;
60964;SDS011;46834;51.100;6.886;2022-09-09T14:46:17;1.45;;;0.40;;
60964;SDS011;46834;51.100;6.886;2022-09-09T14:48:44;1.38;;;0.60;;
60964;SDS011;46834;51.100;6.886;2022-09-09T14:51:13;1.08;;;0.43;;
60964;SDS011;46834;51.100;6.886;2022-09-09T14:53:44;2.95;;;0.47;;
60964;SDS011;46834;51.100;6.886;2022-09-09T14:56:15;2.50;;;0.60;;
60964;SDS011;46834;51.100;6.886;2022-09-09T14:58:45;2.70;;;0.73;;
60964;SDS011;46834;51.100;6.886;2022-09-09T15:01:12;2.10;;;0.57;;
60964;SDS011;46834;51.100;6.886;2022-09-09T15:03:41;1.58;;;0.75;;
60964;SDS011;46834;51.100;6.886;2022-09-09T15:06:13;2.67;;;0.80;;
60964;SDS011;46834;51.100;6.886;2022-09-09T15:08:40;2.15;;;0.90;;
60964;SDS011;46834;51.100;6.886;2022-09-09T15:11:09;2.33;;;0.40;;
60964;SDS011;46834;51.100;6.886;2022-09-09T15:13:37;1.33;;;0.50;;
60964;SDS011;46834;51.100;6.886;2022-09-09T15:18:31;0.70;;;0.40;;
60964;SDS011;46834;51.100;6.886;2022-09-09T15:20:58;0.90;;;0.40;;
60964;SDS011;46834;51.100;6.886;2022-09-09T15:23:26;1.65;;;0.57;;
60964;SDS011;46834;51.100;6.886;2022-09-09T15:25:52;0.30;;;0.30;;
60964;SDS011;46834;51.100;6.886;2022-09-09T15:28:20;3.17;;;0.60;;
60964;SDS011;46834;51.100;6.886;2022-09-09T15:30:47;0.95;;;0.40;;
60964;SDS011;46834;51.100;6.886;2022-09-09T15:33:14;2.05;;;0.40;;
60964;SDS011;46834;51.100;6.886;2022-09-09T15:35:40;0.93;;;0.50;;
60964;SDS011;46834;51.100;6.886;2022-09-09T15:38:05;1.40;;;0.30;;
60964;SDS011;46834;51.100;6.886;2022-09-09T15:40:31;1.33;;;0.60;;
60964;SDS011;46834;51.100;6.886;2022-09-09T15:42:59;1.80;;;0.50;;
60964;SDS011;46834;51.100;6.886;2022-09-09T15:45:25;0.90;;;0.40;;
60964;SDS011;46834;51.100;6.886;2022-09-09T15:47:56;0.35;;;0.30;;
60964;SDS011;46834;51.100;6.886;2022-09-09T15:50:21;2.88;;;0.40;;
60964;SDS011;46834;51.100;6.886;2022-09-09T15:52:47;1.52;;;0.43;;
60964;SDS011;46834;51.100;6.886;2022-09-09T15:55:13;1.10;;;0.60;;
60964;SDS011;46834;51.100;6.886;2022-09-09T15:57:39;0.57;;;0.40;;
60964;SDS011;46834;51.100;6.886;2022-09-09T16:00:05;1.10;;;0.45;;
60964;SDS011;46834;51.100;6.886;2022-09-09T16:02:32;1.10;;;0.50;;
60964;SDS011;46834;51.100;6.886;2022-09-09T16:04:58;0.40;;;0.35;;
60964;SDS011;46834;51.100;6.886;2022-09-09T16:07:24;0.35;;;0.35;;
60964;SDS011;46834;51.100;6.886;2022-09-09T16:09:49;0.40;;;0.40;;
60964;SDS011;46834;51.100;6.886;2022-09-09T16:12:17;2.15;;;0.52;;
60964;SDS011;46834;51.100;6.886;2022-09-09T16:14:43;2.40;;;0.60;;
60964;SDS011;46834;51.100;6.886;2022-09-09T16:17:10;2.13;;;1.00;;
60964;SDS011;46834;51.100;6.886;2022-09-09T16:19:36;1.48;;;0.70;;
60964;SDS011;46834;51.100;6.886;2022-09-09T16:22:02;2.88;;;0.50;;
60964;SDS011;46834;51.100;6.886;2022-09-09T16:24:31;0.75;;;0.43;;
60964;SDS011;46834;51.100;6.886;2022-09-09T16:26:58;0.90;;;0.52;;
60964;SDS011;46834;51.100;6.886;2022-09-09T16:29:23;0.85;;;0.40;;
60964;SDS011;46834;51.100;6.886;2022-09-09T16:31:52;0.50;;;0.40;;
60964;SDS011;46834;51.100;6.886;2022-09-09T16:34:19;0.60;;;0.47;;
60964;SDS011;46834;51.100;6.886;2022-09-09T16:36:47;1.40;;;0.40;;
60964;SDS011;46834;51.100;6.886;2022-09-09T16:39:14;0.43;;;0.40;;
60964;SDS011;46834;51.100;6.886;2022-09-09T16:41:44;0.77;;;0.43;;
60964;SDS011;46834;51.100;6.886;2022-09-09T16:44:12;1.02;;;0.38;;
60964;SDS011;46834;51.100;6.886;2022-09-09T16:46:44;4.25;;;0.50;;
60964;SDS011;46834;51.100;6.886;2022-09-09T16:49:13;1.70;;;0.63;;
60964;SDS011;46834;51.100;6.886;2022-09-09T16:51:44;0.40;;;0.40;;
60964;SDS011;46834;51.100;6.886;2022-09-09T16:54:18;1.35;;;0.50;;
60964;SDS011;46834;51.100;6.886;2022-09-09T16:56:46;0.65;;;0.40;;
60964;SDS011;46834;51.100;6.886;2022-09-09T16:59:13;0.93;;;0.32;;
60964;SDS011;46834;51.100;6.886;2022-09-09T17:01:42;2.40;;;0.50;;
60964;SDS011;46834;51.100;6.886;2022-09-09T17:04:11;2.38;;;0.50;;
60964;SDS011;46834;51.100;6.886;2022-09-09T17:06:48;0.63;;;0.38;;
60964;SDS011;46834;51.100;6.886;2022-09-09T17:09:16;0.75;;;0.52;;
60964;SDS011;46834;51.100;6.886;2022-09-09T17:11:43;1.45;;;0.70;;
60964;SDS011;46834;51.100;6.886;2022-09-09T17:14:11;3.10;;;0.50;;
60964;SDS011;46834;51.100;6.886;2022-09-09T17:16:41;0.63;;;0.50;;
60964;SDS011;46834;51.100;6.886;2022-09-09T17:19:08;1.48;;;0.55;;
60964;SDS011;46834;51.100;6.886;2022-09-09T17:21:35;1.00;;;0.40;;
60964;SDS011;46834;51.100;6.886;2022-09-09T17:24:02;0.90;;;0.40;;
60964;SDS011;46834;51.100;6.886;2022-09-09T17:26:30;0.95;;;0.57;;
60964;SDS011;46834;51.100;6.886;2022-09-09T17:28:58;0.75;;;0.43;;
60964;SDS011;46834;51.100;6.886;2022-09-09T17:31:26;1.48;;;0.65;;